LIMGLOWI

Guest
Details From LIMG - Albenga
To LOWI - Innsbruck Kranebitten
Flight Number -
Tags Generated
Created
Modified
Stats Distance 235 nm / 436 km
Max Altitude 0 ft / 0 m
Waypoints 3
Social Downloads 0
Likes 0
Share VATSIM

Download

Looking for another format? Having issues loading an existing format? Contact us
Advertisement - Login to hide

Notes

Generated

Route

LIMG OEJ14 LOWI

ID Type Via Altitude Latitude Longitude Leg Dist Tot Dist Heading (true) Name
O LIMG APT - 0 ft / 0 m 44.05091˚ 8.11848˚ - 0 nm - -
OEJ14 FIX - 0 ft / 0 m 47.22717˚ 11.28285˚ 232 nm 232 nm 34° / 36° -
O LOWI APT - 0 ft / 0 m 47.25883˚ 11.33091˚ 2 nm 235 nm 46° / 46° -

Altitude Profile

Advertisement - Login to hide

Weather


0- 5 10 15 20 25 30 35+ Temperature / ° C

Clouds and Precipitation
Forecast for 2018-05-24 18:00 UTC. Updated 27 minutes ago

Ground ~20,000 ft ~40,000 ft Winds

LIMG

Details ICAO LIMG (ALL)
Name ALBENGA
Region Italy
Timezone Europe/Rome (UTC+2.0)
Stats Elevation 148 ft / 45 m (AMSL)
Location 44.050576° 8.127396°
Runways 1
Magnetic Variation 2.274° E

METAR

LIMG 241650Z 10009KT 9999 FEW025 20/16 Q1016

Decode

TAF

Not found

Departure Runways

ID Width Length Bearing (true) Bearing (mag) Surface Threshold Offset Overrun Length
09 148 ft / 45 m 4,681 ft / 1,427 m 92.94° 90.67° Asphalt 295 ft / 90 m 0 ft / 0 m
27 148 ft / 45 m 4,681 ft / 1,427 m 272.95° 270.68° Asphalt 0 ft / 0 m 425 ft / 130 m

LOWI

Details ICAO LOWI (INN)
Name Innsbruck Kranebitten
Region Austria
Timezone Europe/Vienna (UTC+2.0)
Stats Elevation 1,906 ft / 581 m (AMSL)
Location 47.260226° 11.343967°
Runways 1
Magnetic Variation 3.072° E

METAR

LOWI 241720Z 13005KT 090V190 9999 FEW030 SCT060 FEW060TCU BKN140 19/13 Q1017 NOSIG

Decode

TAF

TAF LOWI 241115Z 2412/2512 08007KT 9999 SCT050TCU BKN100 TX24/2512Z TN12/2504Z TEMPO 2412/2420 VRB15G25KT TSRA SCT070CB BKN080 BECMG 2419/2421 27004KT FEW010 TEMPO 2500/2507 BKN010 BECMG 2509/2511 08008KT FEW040

Decode

Destination Runways

ID Width Length Bearing (true) Bearing (mag) Surface Threshold Offset Overrun Length
08 148 ft / 45 m 6,545 ft / 1,995 m 81.02° 77.95° Asphalt 338 ft / 103 m 0 ft / 0 m
26 148 ft / 45 m 6,545 ft / 1,995 m 261.04° 257.97° Asphalt 0 ft / 0 m 0 ft / 0 m

Approach Navaids

Runway Type Ident Frequency Range Bearing (true) Bearing (mag) Slope Elevation
26 Localiser OEV 111.10 MHz 27 nm / 50 km 256.00° 252.93° - 1,906 ft / 581 m (AMSL)
26 Localiser OEJ 109.70 MHz 30 nm / 56 km 69.00° 65.93° - 1,906 ft / 581 m (AMSL)
26 Glidescope OEV 111.10 MHz 18 nm / 33 km 256.00° 252.93° 3.80° 1,911 ft / 582 m (AMSL)
26 DME OEJ 109.70 MHz 30 nm / 56 km - - - 1,906 ft / 581 m (AMSL)
26 DME OEV 111.10 MHz 27 nm / 50 km - - - 1,911 ft / 582 m (AMSL)